sensor_id;sensor_type;location;lat;lon;timestamp;P1;durP1;ratioP1;P2;durP2;ratioP2
11191;SDS011;5652;48.406;10.820;2022-07-30T00:02:18;7.55;;;4.75;;
11191;SDS011;5652;48.406;10.820;2022-07-30T00:04:45;6.47;;;4.78;;
11191;SDS011;5652;48.406;10.820;2022-07-30T00:07:14;5.25;;;4.53;;
11191;SDS011;5652;48.406;10.820;2022-07-30T00:09:41;5.25;;;4.55;;
11191;SDS011;5652;48.406;10.820;2022-07-30T00:12:08;6.32;;;4.85;;
11191;SDS011;5652;48.406;10.820;2022-07-30T00:14:35;6.40;;;5.10;;
11191;SDS011;5652;48.406;10.820;2022-07-30T00:17:03;6.45;;;4.97;;
11191;SDS011;5652;48.406;10.820;2022-07-30T00:19:31;6.07;;;4.90;;
11191;SDS011;5652;48.406;10.820;2022-07-30T00:21:58;7.75;;;5.00;;
11191;SDS011;5652;48.406;10.820;2022-07-30T00:24:27;6.00;;;5.10;;
11191;SDS011;5652;48.406;10.820;2022-07-30T00:26:54;6.25;;;5.38;;
11191;SDS011;5652;48.406;10.820;2022-07-30T00:29:21;7.10;;;5.80;;
11191;SDS011;5652;48.406;10.820;2022-07-30T00:31:49;6.50;;;5.68;;
11191;SDS011;5652;48.406;10.820;2022-07-30T00:34:17;7.63;;;5.83;;
11191;SDS011;5652;48.406;10.820;2022-07-30T00:36:44;6.88;;;5.47;;
11191;SDS011;5652;48.406;10.820;2022-07-30T00:39:11;6.60;;;5.47;;
11191;SDS011;5652;48.406;10.820;2022-07-30T00:41:53;6.78;;;5.40;;
11191;SDS011;5652;48.406;10.820;2022-07-30T00:44:20;6.70;;;5.40;;
11191;SDS011;5652;48.406;10.820;2022-07-30T00:46:47;7.45;;;5.82;;
11191;SDS011;5652;48.406;10.820;2022-07-30T00:49:14;8.77;;;5.63;;
11191;SDS011;5652;48.406;10.820;2022-07-30T00:51:41;7.60;;;5.53;;
11191;SDS011;5652;48.406;10.820;2022-07-30T00:54:09;8.80;;;5.70;;
11191;SDS011;5652;48.406;10.820;2022-07-30T00:56:36;8.10;;;5.70;;
11191;SDS011;5652;48.406;10.820;2022-07-30T00:59:04;9.20;;;5.93;;
11191;SDS011;5652;48.406;10.820;2022-07-30T01:01:32;9.97;;;5.83;;
11191;SDS011;5652;48.406;10.820;2022-07-30T01:03:59;7.25;;;5.60;;
11191;SDS011;5652;48.406;10.820;2022-07-30T01:06:26;7.78;;;5.13;;
11191;SDS011;5652;48.406;10.820;2022-07-30T01:08:53;10.38;;;5.55;;
11191;SDS011;5652;48.406;10.820;2022-07-30T01:11:21;7.00;;;5.20;;
11191;SDS011;5652;48.406;10.820;2022-07-30T01:13:53;6.07;;;4.90;;
11191;SDS011;5652;48.406;10.820;2022-07-30T01:16:22;7.00;;;5.18;;
11191;SDS011;5652;48.406;10.820;2022-07-30T01:18:50;5.25;;;4.53;;
11191;SDS011;5652;48.406;10.820;2022-07-30T01:21:37;10.30;;;4.57;;
11191;SDS011;5652;48.406;10.820;2022-07-30T01:24:11;5.97;;;4.80;;
11191;SDS011;5652;48.406;10.820;2022-07-30T01:26:44;7.60;;;4.72;;
11191;SDS011;5652;48.406;10.820;2022-07-30T01:29:11;6.60;;;4.75;;
11191;SDS011;5652;48.406;10.820;2022-07-30T01:31:39;7.70;;;4.60;;
11191;SDS011;5652;48.406;10.820;2022-07-30T01:34:07;6.03;;;5.00;;
11191;SDS011;5652;48.406;10.820;2022-07-30T01:36:37;7.10;;;5.10;;
11191;SDS011;5652;48.406;10.820;2022-07-30T01:39:04;4.80;;;3.92;;
11191;SDS011;5652;48.406;10.820;2022-07-30T01:41:32;6.68;;;4.80;;
11191;SDS011;5652;48.406;10.820;2022-07-30T01:44:02;7.38;;;4.53;;
11191;SDS011;5652;48.406;10.820;2022-07-30T01:46:30;6.95;;;4.55;;
11191;SDS011;5652;48.406;10.820;2022-07-30T01:48:57;7.82;;;4.75;;
11191;SDS011;5652;48.406;10.820;2022-07-30T01:51:25;5.25;;;4.22;;
11191;SDS011;5652;48.406;10.820;2022-07-30T01:53:53;6.03;;;4.30;;
11191;SDS011;5652;48.406;10.820;2022-07-30T01:56:21;6.50;;;4.40;;
11191;SDS011;5652;48.406;10.820;2022-07-30T01:58:50;6.25;;;4.45;;
11191;SDS011;5652;48.406;10.820;2022-07-30T02:01:19;6.28;;;4.50;;
11191;SDS011;5652;48.406;10.820;2022-07-30T02:03:46;5.32;;;4.57;;
11191;SDS011;5652;48.406;10.820;2022-07-30T02:06:16;8.35;;;5.07;;
11191;SDS011;5652;48.406;10.820;2022-07-30T02:08:47;5.90;;;4.68;;
11191;SDS011;5652;48.406;10.820;2022-07-30T02:11:17;5.43;;;4.35;;
11191;SDS011;5652;48.406;10.820;2022-07-30T02:14:06;5.15;;;4.22;;
11191;SDS011;5652;48.406;10.820;2022-07-30T02:16:37;7.77;;;4.23;;
11191;SDS011;5652;48.406;10.820;2022-07-30T02:19:05;6.32;;;4.85;;
11191;SDS011;5652;48.406;10.820;2022-07-30T02:21:33;8.67;;;5.33;;
11191;SDS011;5652;48.406;10.820;2022-07-30T02:24:01;6.35;;;4.25;;
11191;SDS011;5652;48.406;10.820;2022-07-30T02:26:31;6.93;;;4.72;;
11191;SDS011;5652;48.406;10.820;2022-07-30T02:28:58;6.63;;;5.00;;
11191;SDS011;5652;48.406;10.820;2022-07-30T02:31:28;5.60;;;4.60;;
11191;SDS011;5652;48.406;10.820;2022-07-30T02:33:59;6.32;;;5.10;;
11191;SDS011;5652;48.406;10.820;2022-07-30T02:36:27;5.80;;;5.07;;
11191;SDS011;5652;48.406;10.820;2022-07-30T02:38:56;10.90;;;5.18;;
11191;SDS011;5652;48.406;10.820;2022-07-30T02:41:24;7.90;;;5.30;;
11191;SDS011;5652;48.406;10.820;2022-07-30T02:43:52;7.23;;;4.87;;
11191;SDS011;5652;48.406;10.820;2022-07-30T02:46:20;7.50;;;4.67;;
11191;SDS011;5652;48.406;10.820;2022-07-30T02:48:48;6.85;;;5.05;;
11191;SDS011;5652;48.406;10.820;2022-07-30T02:51:18;7.13;;;4.30;;
11191;SDS011;5652;48.406;10.820;2022-07-30T02:53:46;8.60;;;5.23;;
11191;SDS011;5652;48.406;10.820;2022-07-30T02:56:14;5.47;;;4.53;;
11191;SDS011;5652;48.406;10.820;2022-07-30T02:58:43;9.07;;;5.10;;
11191;SDS011;5652;48.406;10.820;2022-07-30T03:01:10;8.45;;;4.93;;
11191;SDS011;5652;48.406;10.820;2022-07-30T03:03:39;6.38;;;4.53;;
11191;SDS011;5652;48.406;10.820;2022-07-30T03:06:08;6.93;;;5.38;;
11191;SDS011;5652;48.406;10.820;2022-07-30T03:08:38;6.45;;;5.20;;
11191;SDS011;5652;48.406;10.820;2022-07-30T03:11:06;7.45;;;5.03;;
11191;SDS011;5652;48.406;10.820;2022-07-30T03:13:34;7.60;;;4.90;;
11191;SDS011;5652;48.406;10.820;2022-07-30T03:16:01;5.43;;;4.63;;
11191;SDS011;5652;48.406;10.820;2022-07-30T03:18:31;8.47;;;5.20;;
11191;SDS011;5652;48.406;10.820;2022-07-30T03:20:59;9.52;;;5.22;;
11191;SDS011;5652;48.406;10.820;2022-07-30T03:23:27;6.63;;;4.97;;
11191;SDS011;5652;48.406;10.820;2022-07-30T03:25:56;6.63;;;4.60;;
11191;SDS011;5652;48.406;10.820;2022-07-30T03:28:25;7.10;;;4.75;;
11191;SDS011;5652;48.406;10.820;2022-07-30T03:30:53;6.93;;;4.87;;
11191;SDS011;5652;48.406;10.820;2022-07-30T03:33:21;5.82;;;4.80;;
11191;SDS011;5652;48.406;10.820;2022-07-30T03:35:49;6.63;;;4.77;;
11191;SDS011;5652;48.406;10.820;2022-07-30T03:38:17;7.25;;;5.00;;
11191;SDS011;5652;48.406;10.820;2022-07-30T03:40:44;5.63;;;4.60;;
11191;SDS011;5652;48.406;10.820;2022-07-30T03:43:13;6.78;;;5.03;;
11191;SDS011;5652;48.406;10.820;2022-07-30T03:45:41;5.93;;;4.43;;
11191;SDS011;5652;48.406;10.820;2022-07-30T03:48:10;5.27;;;4.73;;
11191;SDS011;5652;48.406;10.820;2022-07-30T03:50:38;6.70;;;4.63;;
11191;SDS011;5652;48.406;10.820;2022-07-30T03:53:06;6.30;;;4.47;;
11191;SDS011;5652;48.406;10.820;2022-07-30T03:55:35;6.03;;;4.93;;
11191;SDS011;5652;48.406;10.820;2022-07-30T03:58:02;5.75;;;4.68;;
11191;SDS011;5652;48.406;10.820;2022-07-30T04:00:31;6.35;;;4.22;;
11191;SDS011;5652;48.406;10.820;2022-07-30T04:02:59;8.40;;;4.35;;
11191;SDS011;5652;48.406;10.820;2022-07-30T04:05:26;7.65;;;4.40;;
11191;SDS011;5652;48.406;10.820;2022-07-30T04:07:53;7.45;;;4.40;;
11191;SDS011;5652;48.406;10.820;2022-07-30T04:10:20;5.82;;;4.80;;
11191;SDS011;5652;48.406;10.820;2022-07-30T04:12:48;6.68;;;4.70;;
11191;SDS011;5652;48.406;10.820;2022-07-30T04:15:15;8.05;;;4.38;;
11191;SDS011;5652;48.406;10.820;2022-07-30T04:17:45;6.17;;;4.77;;
11191;SDS011;5652;48.406;10.820;2022-07-30T04:20:15;5.32;;;4.50;;
11191;SDS011;5652;48.406;10.820;2022-07-30T04:22:43;5.80;;;4.18;;
11191;SDS011;5652;48.406;10.820;2022-07-30T04:25:10;5.55;;;4.57;;
11191;SDS011;5652;48.406;10.820;2022-07-30T04:27:38;4.93;;;4.43;;
11191;SDS011;5652;48.406;10.820;2022-07-30T04:30:05;6.63;;;4.93;;
11191;SDS011;5652;48.406;10.820;2022-07-30T04:32:33;5.30;;;4.50;;
11191;SDS011;5652;48.406;10.820;2022-07-30T04:35:03;5.60;;;4.25;;
11191;SDS011;5652;48.406;10.820;2022-07-30T04:37:30;4.90;;;4.23;;
11191;SDS011;5652;48.406;10.820;2022-07-30T04:39:57;5.68;;;4.18;;
11191;SDS011;5652;48.406;10.820;2022-07-30T04:42:25;5.63;;;4.40;;
11191;SDS011;5652;48.406;10.820;2022-07-30T04:44:52;6.43;;;4.50;;
11191;SDS011;5652;48.406;10.820;2022-07-30T04:47:20;5.60;;;4.30;;
11191;SDS011;5652;48.406;10.820;2022-07-30T04:49:47;6.10;;;4.28;;
11191;SDS011;5652;48.406;10.820;2022-07-30T04:52:16;6.15;;;4.50;;
11191;SDS011;5652;48.406;10.820;2022-07-30T04:54:44;6.70;;;4.32;;
11191;SDS011;5652;48.406;10.820;2022-07-30T04:57:12;6.45;;;4.18;;
11191;SDS011;5652;48.406;10.820;2022-07-30T04:59:39;4.55;;;4.00;;
11191;SDS011;5652;48.406;10.820;2022-07-30T05:02:07;4.80;;;3.80;;
11191;SDS011;5652;48.406;10.820;2022-07-30T05:04:37;6.10;;;4.22;;
11191;SDS011;5652;48.406;10.820;2022-07-30T05:07:06;4.85;;;4.30;;
11191;SDS011;5652;48.406;10.820;2022-07-30T05:09:35;4.97;;;4.20;;
11191;SDS011;5652;48.406;10.820;2022-07-30T05:12:02;6.67;;;4.10;;
11191;SDS011;5652;48.406;10.820;2022-07-30T05:14:29;5.10;;;4.22;;
11191;SDS011;5652;48.406;10.820;2022-07-30T05:16:57;6.50;;;4.32;;
11191;SDS011;5652;48.406;10.820;2022-07-30T05:19:24;5.28;;;4.50;;
11191;SDS011;5652;48.406;10.820;2022-07-30T05:21:51;6.93;;;4.32;;
11191;SDS011;5652;48.406;10.820;2022-07-30T05:24:18;6.13;;;3.90;;
11191;SDS011;5652;48.406;10.820;2022-07-30T05:26:47;6.55;;;4.38;;
11191;SDS011;5652;48.406;10.820;2022-07-30T05:29:14;5.20;;;4.40;;
11191;SDS011;5652;48.406;10.820;2022-07-30T05:31:41;4.95;;;4.15;;
11191;SDS011;5652;48.406;10.820;2022-07-30T05:34:09;7.30;;;4.32;;
11191;SDS011;5652;48.406;10.820;2022-07-30T05:36:36;4.72;;;4.15;;
11191;SDS011;5652;48.406;10.820;2022-07-30T05:39:03;6.15;;;4.30;;
11191;SDS011;5652;48.406;10.820;2022-07-30T05:41:30;6.22;;;4.20;;
11191;SDS011;5652;48.406;10.820;2022-07-30T05:43:58;6.00;;;4.43;;
11191;SDS011;5652;48.406;10.820;2022-07-30T05:46:26;5.75;;;4.25;;
11191;SDS011;5652;48.406;10.820;2022-07-30T05:48:53;6.60;;;4.60;;
11191;SDS011;5652;48.406;10.820;2022-07-30T05:51:20;5.55;;;4.60;;
11191;SDS011;5652;48.406;10.820;2022-07-30T05:53:47;6.80;;;4.43;;
11191;SDS011;5652;48.406;10.820;2022-07-30T05:56:14;5.53;;;4.70;;
11191;SDS011;5652;48.406;10.820;2022-07-30T05:58:42;6.43;;;4.43;;
11191;SDS011;5652;48.406;10.820;2022-07-30T06:01:11;6.50;;;4.50;;
11191;SDS011;5652;48.406;10.820;2022-07-30T06:03:38;5.70;;;4.27;;
11191;SDS011;5652;48.406;10.820;2022-07-30T06:06:06;8.90;;;4.85;;
11191;SDS011;5652;48.406;10.820;2022-07-30T06:08:33;7.40;;;4.43;;
11191;SDS011;5652;48.406;10.820;2022-07-30T06:11:01;5.82;;;4.28;;
11191;SDS011;5652;48.406;10.820;2022-07-30T06:13:28;6.68;;;4.43;;
11191;SDS011;5652;48.406;10.820;2022-07-30T06:15:55;6.97;;;3.97;;
11191;SDS011;5652;48.406;10.820;2022-07-30T06:18:23;7.53;;;4.28;;
11191;SDS011;5652;48.406;10.820;2022-07-30T06:20:51;5.32;;;3.90;;
11191;SDS011;5652;48.406;10.820;2022-07-30T06:23:18;5.47;;;3.97;;
11191;SDS011;5652;48.406;10.820;2022-07-30T06:25:46;5.63;;;3.72;;
11191;SDS011;5652;48.406;10.820;2022-07-30T06:28:13;6.80;;;3.97;;
11191;SDS011;5652;48.406;10.820;2022-07-30T06:30:40;4.75;;;4.25;;
11191;SDS011;5652;48.406;10.820;2022-07-30T06:33:10;8.27;;;4.70;;
11191;SDS011;5652;48.406;10.820;2022-07-30T06:35:39;6.47;;;4.50;;
11191;SDS011;5652;48.406;10.820;2022-07-30T06:38:06;5.40;;;4.30;;
11191;SDS011;5652;48.406;10.820;2022-07-30T06:40:33;6.18;;;4.70;;
11191;SDS011;5652;48.406;10.820;2022-07-30T06:43:00;6.30;;;4.43;;
11191;SDS011;5652;48.406;10.820;2022-07-30T06:45:28;5.13;;;3.85;;
11191;SDS011;5652;48.406;10.820;2022-07-30T06:47:55;7.72;;;4.90;;
11191;SDS011;5652;48.406;10.820;2022-07-30T06:50:23;7.40;;;4.18;;
11191;SDS011;5652;48.406;10.820;2022-07-30T06:52:51;6.13;;;4.80;;
11191;SDS011;5652;48.406;10.820;2022-07-30T06:55:18;5.63;;;4.72;;
11191;SDS011;5652;48.406;10.820;2022-07-30T06:57:46;6.55;;;4.60;;
11191;SDS011;5652;48.406;10.820;2022-07-30T07:00:13;8.73;;;4.90;;
11191;SDS011;5652;48.406;10.820;2022-07-30T07:02:40;6.88;;;4.65;;
11191;SDS011;5652;48.406;10.820;2022-07-30T07:05:08;6.15;;;4.47;;
11191;SDS011;5652;48.406;10.820;2022-07-30T07:07:35;7.47;;;5.22;;
11191;SDS011;5652;48.406;10.820;2022-07-30T07:10:04;6.45;;;4.40;;
11191;SDS011;5652;48.406;10.820;2022-07-30T07:12:31;7.65;;;4.93;;
11191;SDS011;5652;48.406;10.820;2022-07-30T07:14:58;6.90;;;5.07;;
11191;SDS011;5652;48.406;10.820;2022-07-30T07:17:25;6.70;;;4.60;;
11191;SDS011;5652;48.406;10.820;2022-07-30T07:19:53;6.40;;;4.60;;
11191;SDS011;5652;48.406;10.820;2022-07-30T07:22:20;7.00;;;4.60;;
11191;SDS011;5652;48.406;10.820;2022-07-30T07:24:47;6.55;;;4.80;;
11191;SDS011;5652;48.406;10.820;2022-07-30T07:27:15;6.87;;;4.77;;
11191;SDS011;5652;48.406;10.820;2022-07-30T07:29:43;6.75;;;5.00;;
11191;SDS011;5652;48.406;10.820;2022-07-30T07:32:10;7.45;;;4.90;;
11191;SDS011;5652;48.406;10.820;2022-07-30T07:34:37;5.47;;;4.50;;
11191;SDS011;5652;48.406;10.820;2022-07-30T07:37:04;9.07;;;4.75;;
11191;SDS011;5652;48.406;10.820;2022-07-30T07:39:31;5.72;;;4.13;;
11191;SDS011;5652;48.406;10.820;2022-07-30T07:41:58;6.35;;;4.45;;
11191;SDS011;5652;48.406;10.820;2022-07-30T07:44:27;5.85;;;4.28;;
11191;SDS011;5652;48.406;10.820;2022-07-30T07:46:54;5.93;;;4.43;;
11191;SDS011;5652;48.406;10.820;2022-07-30T07:49:21;4.35;;;3.83;;
11191;SDS011;5652;48.406;10.820;2022-07-30T07:51:48;9.07;;;4.15;;
11191;SDS011;5652;48.406;10.820;2022-07-30T07:54:16;5.70;;;3.67;;
11191;SDS011;5652;48.406;10.820;2022-07-30T07:56:43;4.45;;;3.97;;
11191;SDS011;5652;48.406;10.820;2022-07-30T07:59:11;6.18;;;4.03;;
11191;SDS011;5652;48.406;10.820;2022-07-30T08:01:39;5.30;;;3.72;;
11191;SDS011;5652;48.406;10.820;2022-07-30T08:04:07;7.60;;;3.80;;
11191;SDS011;5652;48.406;10.820;2022-07-30T08:06:34;5.93;;;3.70;;
11191;SDS011;5652;48.406;10.820;2022-07-30T08:09:01;5.60;;;3.80;;
11191;SDS011;5652;48.406;10.820;2022-07-30T08:11:28;5.65;;;3.90;;
11191;SDS011;5652;48.406;10.820;2022-07-30T08:13:55;4.80;;;4.07;;
11191;SDS011;5652;48.406;10.820;2022-07-30T08:16:23;3.25;;;2.92;;
11191;SDS011;5652;48.406;10.820;2022-07-30T08:18:51;8.80;;;3.70;;
11191;SDS011;5652;48.406;10.820;2022-07-30T08:21:18;5.90;;;3.88;;
11191;SDS011;5652;48.406;10.820;2022-07-30T08:23:45;5.63;;;4.20;;
11191;SDS011;5652;48.406;10.820;2022-07-30T08:26:13;4.55;;;3.72;;
11191;SDS011;5652;48.406;10.820;2022-07-30T08:28:40;7.30;;;4.13;;
11191;SDS011;5652;48.406;10.820;2022-07-30T08:31:09;7.40;;;3.88;;
11191;SDS011;5652;48.406;10.820;2022-07-30T08:33:36;6.68;;;3.80;;
11191;SDS011;5652;48.406;10.820;2022-07-30T08:36:05;5.90;;;3.60;;
11191;SDS011;5652;48.406;10.820;2022-07-30T08:38:32;5.82;;;3.75;;
11191;SDS011;5652;48.406;10.820;2022-07-30T08:40:59;4.97;;;3.60;;
11191;SDS011;5652;48.406;10.820;2022-07-30T08:43:27;5.38;;;3.55;;
11191;SDS011;5652;48.406;10.820;2022-07-30T08:45:55;5.47;;;3.20;;
11191;SDS011;5652;48.406;10.820;2022-07-30T08:48:22;5.03;;;3.53;;
11191;SDS011;5652;48.406;10.820;2022-07-30T08:50:49;4.32;;;3.22;;
11191;SDS011;5652;48.406;10.820;2022-07-30T08:53:18;5.43;;;3.37;;
11191;SDS011;5652;48.406;10.820;2022-07-30T08:55:45;4.53;;;3.67;;
11191;SDS011;5652;48.406;10.820;2022-07-30T08:58:14;5.82;;;3.75;;
11191;SDS011;5652;48.406;10.820;2022-07-30T09:00:46;4.72;;;3.17;;
11191;SDS011;5652;48.406;10.820;2022-07-30T09:03:17;5.63;;;3.20;;
11191;SDS011;5652;48.406;10.820;2022-07-30T09:05:44;5.90;;;3.40;;
11191;SDS011;5652;48.406;10.820;2022-07-30T09:08:12;5.43;;;3.30;;
11191;SDS011;5652;48.406;10.820;2022-07-30T09:10:40;4.37;;;2.80;;
11191;SDS011;5652;48.406;10.820;2022-07-30T09:13:21;3.33;;;2.88;;
11191;SDS011;5652;48.406;10.820;2022-07-30T09:15:48;6.43;;;2.88;;
11191;SDS011;5652;48.406;10.820;2022-07-30T09:18:24;4.43;;;2.45;;
11191;SDS011;5652;48.406;10.820;2022-07-30T09:20:52;5.10;;;2.60;;
11191;SDS011;5652;48.406;10.820;2022-07-30T09:23:19;3.00;;;2.10;;
11191;SDS011;5652;48.406;10.820;2022-07-30T09:25:48;3.42;;;2.00;;
11191;SDS011;5652;48.406;10.820;2022-07-30T09:28:15;3.97;;;2.30;;
11191;SDS011;5652;48.406;10.820;2022-07-30T09:30:43;5.05;;;2.15;;
11191;SDS011;5652;48.406;10.820;2022-07-30T09:33:11;2.90;;;2.22;;
11191;SDS011;5652;48.406;10.820;2022-07-30T09:35:39;3.70;;;2.30;;
11191;SDS011;5652;48.406;10.820;2022-07-30T09:38:06;4.55;;;2.17;;
11191;SDS011;5652;48.406;10.820;2022-07-30T09:40:34;3.33;;;2.17;;
11191;SDS011;5652;48.406;10.820;2022-07-30T09:43:03;4.15;;;2.17;;
11191;SDS011;5652;48.406;10.820;2022-07-30T09:45:31;4.33;;;2.23;;
11191;SDS011;5652;48.406;10.820;2022-07-30T09:47:58;3.80;;;2.00;;
11191;SDS011;5652;48.406;10.820;2022-07-30T09:50:26;3.97;;;2.20;;
11191;SDS011;5652;48.406;10.820;2022-07-30T09:52:53;3.22;;;2.10;;
11191;SDS011;5652;48.406;10.820;2022-07-30T09:55:30;2.92;;;1.98;;
11191;SDS011;5652;48.406;10.820;2022-07-30T09:57:59;2.97;;;2.13;;
11191;SDS011;5652;48.406;10.820;2022-07-30T10:00:28;2.88;;;1.92;;
11191;SDS011;5652;48.406;10.820;2022-07-30T10:02:56;3.20;;;2.10;;
11191;SDS011;5652;48.406;10.820;2022-07-30T10:05:24;4.30;;;2.20;;
11191;SDS011;5652;48.406;10.820;2022-07-30T10:07:52;3.33;;;1.80;;
11191;SDS011;5652;48.406;10.820;2022-07-30T10:10:21;2.42;;;1.70;;
11191;SDS011;5652;48.406;10.820;2022-07-30T10:12:49;2.50;;;1.92;;
11191;SDS011;5652;48.406;10.820;2022-07-30T10:15:17;4.07;;;2.05;;
11191;SDS011;5652;48.406;10.820;2022-07-30T10:17:47;2.53;;;1.80;;
11191;SDS011;5652;48.406;10.820;2022-07-30T10:20:15;2.60;;;1.90;;
11191;SDS011;5652;48.406;10.820;2022-07-30T10:22:42;4.15;;;1.83;;
11191;SDS011;5652;48.406;10.820;2022-07-30T10:25:10;2.33;;;1.77;;
11191;SDS011;5652;48.406;10.820;2022-07-30T10:27:38;2.83;;;1.97;;
11191;SDS011;5652;48.406;10.820;2022-07-30T10:30:05;1.73;;;1.58;;
11191;SDS011;5652;48.406;10.820;2022-07-30T10:32:33;2.90;;;1.70;;
11191;SDS011;5652;48.406;10.820;2022-07-30T10:35:03;2.28;;;1.50;;
11191;SDS011;5652;48.406;10.820;2022-07-30T10:37:31;1.40;;;1.30;;
11191;SDS011;5652;48.406;10.820;2022-07-30T10:40:00;1.95;;;1.45;;
11191;SDS011;5652;48.406;10.820;2022-07-30T10:42:33;4.13;;;1.83;;
11191;SDS011;5652;48.406;10.820;2022-07-30T10:45:15;3.60;;;1.80;;
11191;SDS011;5652;48.406;10.820;2022-07-30T10:47:44;2.63;;;1.90;;
11191;SDS011;5652;48.406;10.820;2022-07-30T10:50:13;3.30;;;1.90;;
11191;SDS011;5652;48.406;10.820;2022-07-30T10:52:42;2.55;;;1.85;;
11191;SDS011;5652;48.406;10.820;2022-07-30T10:55:11;2.70;;;2.00;;
11191;SDS011;5652;48.406;10.820;2022-07-30T11:00:21;1.90;;;1.60;;
11191;SDS011;5652;48.406;10.820;2022-07-30T11:05:35;3.67;;;1.90;;
11191;SDS011;5652;48.406;10.820;2022-07-30T11:10:44;2.90;;;2.00;;
11191;SDS011;5652;48.406;10.820;2022-07-30T11:13:11;3.25;;;2.13;;
11191;SDS011;5652;48.406;10.820;2022-07-30T11:15:51;4.22;;;2.10;;
11191;SDS011;5652;48.406;10.820;2022-07-30T11:18:19;3.22;;;2.00;;
11191;SDS011;5652;48.406;10.820;2022-07-30T11:23:36;3.38;;;1.92;;
11191;SDS011;5652;48.406;10.820;2022-07-30T11:26:04;3.20;;;1.95;;
11191;SDS011;5652;48.406;10.820;2022-07-30T11:28:35;1.90;;;1.70;;
11191;SDS011;5652;48.406;10.820;2022-07-30T11:31:03;2.35;;;2.00;;
11191;SDS011;5652;48.406;10.820;2022-07-30T11:33:50;3.72;;;1.80;;
11191;SDS011;5652;48.406;10.820;2022-07-30T11:36:17;2.10;;;1.70;;
11191;SDS011;5652;48.406;10.820;2022-07-30T11:38:53;2.08;;;1.85;;
11191;SDS011;5652;48.406;10.820;2022-07-30T11:41:20;2.10;;;1.60;;
11191;SDS011;5652;48.406;10.820;2022-07-30T11:43:48;2.97;;;1.70;;
11191;SDS011;5652;48.406;10.820;2022-07-30T11:46:35;4.03;;;1.85;;
11191;SDS011;5652;48.406;10.820;2022-07-30T11:49:03;2.15;;;1.65;;
11191;SDS011;5652;48.406;10.820;2022-07-30T11:51:38;3.80;;;1.70;;
11191;SDS011;5652;48.406;10.820;2022-07-30T11:54:07;3.33;;;1.83;;
11191;SDS011;5652;48.406;10.820;2022-07-30T11:56:36;2.33;;;1.80;;
11191;SDS011;5652;48.406;10.820;2022-07-30T11:59:04;2.17;;;1.75;;
11191;SDS011;5652;48.406;10.820;2022-07-30T12:01:31;3.70;;;1.80;;
11191;SDS011;5652;48.406;10.820;2022-07-30T12:04:01;3.22;;;1.70;;
11191;SDS011;5652;48.406;10.820;2022-07-30T12:06:28;2.28;;;1.80;;
11191;SDS011;5652;48.406;10.820;2022-07-30T12:08:57;2.03;;;1.80;;
11191;SDS011;5652;48.406;10.820;2022-07-30T12:11:26;2.40;;;1.70;;
11191;SDS011;5652;48.406;10.820;2022-07-30T12:13:58;2.30;;;1.88;;
11191;SDS011;5652;48.406;10.820;2022-07-30T12:16:26;3.80;;;1.90;;
11191;SDS011;5652;48.406;10.820;2022-07-30T12:18:59;2.90;;;1.77;;
11191;SDS011;5652;48.406;10.820;2022-07-30T12:21:26;2.60;;;1.75;;
11191;SDS011;5652;48.406;10.820;2022-07-30T12:23:54;1.60;;;1.50;;
11191;SDS011;5652;48.406;10.820;2022-07-30T12:26:22;2.30;;;1.60;;
11191;SDS011;5652;48.406;10.820;2022-07-30T12:28:51;2.22;;;1.50;;
11191;SDS011;5652;48.406;10.820;2022-07-30T12:31:19;3.72;;;1.60;;
11191;SDS011;5652;48.406;10.820;2022-07-30T12:33:46;2.53;;;1.73;;
11191;SDS011;5652;48.406;10.820;2022-07-30T12:36:22;2.35;;;1.60;;
11191;SDS011;5652;48.406;10.820;2022-07-30T12:38:49;2.25;;;1.90;;
11191;SDS011;5652;48.406;10.820;2022-07-30T12:41:18;2.85;;;1.88;;
11191;SDS011;5652;48.406;10.820;2022-07-30T12:43:46;3.08;;;1.80;;
11191;SDS011;5652;48.406;10.820;2022-07-30T12:46:16;2.95;;;1.80;;
11191;SDS011;5652;48.406;10.820;2022-07-30T12:48:54;2.30;;;1.60;;
11191;SDS011;5652;48.406;10.820;2022-07-30T12:51:22;2.75;;;1.67;;
11191;SDS011;5652;48.406;10.820;2022-07-30T12:53:50;2.00;;;1.80;;
11191;SDS011;5652;48.406;10.820;2022-07-30T12:56:18;2.20;;;1.70;;
11191;SDS011;5652;48.406;10.820;2022-07-30T12:58:46;2.70;;;1.60;;
11191;SDS011;5652;48.406;10.820;2022-07-30T13:01:14;3.25;;;1.80;;
11191;SDS011;5652;48.406;10.820;2022-07-30T13:03:42;2.50;;;1.83;;
11191;SDS011;5652;48.406;10.820;2022-07-30T13:06:11;2.17;;;1.63;;
11191;SDS011;5652;48.406;10.820;2022-07-30T13:08:50;2.92;;;1.70;;
11191;SDS011;5652;48.406;10.820;2022-07-30T13:11:18;3.38;;;1.70;;
11191;SDS011;5652;48.406;10.820;2022-07-30T13:13:45;3.38;;;1.60;;
11191;SDS011;5652;48.406;10.820;2022-07-30T13:16:12;1.60;;;1.50;;
11191;SDS011;5652;48.406;10.820;2022-07-30T13:18:39;2.50;;;1.50;;
11191;SDS011;5652;48.406;10.820;2022-07-30T13:21:08;2.65;;;1.70;;
11191;SDS011;5652;48.406;10.820;2022-07-30T13:23:35;3.00;;;1.70;;
11191;SDS011;5652;48.406;10.820;2022-07-30T13:26:03;3.28;;;1.77;;
11191;SDS011;5652;48.406;10.820;2022-07-30T13:28:30;3.33;;;1.80;;
11191;SDS011;5652;48.406;10.820;2022-07-30T13:30:58;2.42;;;1.70;;
11191;SDS011;5652;48.406;10.820;2022-07-30T13:33:26;2.20;;;1.60;;
11191;SDS011;5652;48.406;10.820;2022-07-30T13:35:53;3.10;;;1.70;;
11191;SDS011;5652;48.406;10.820;2022-07-30T13:38:21;2.97;;;1.73;;
11191;SDS011;5652;48.406;10.820;2022-07-30T13:40:49;2.90;;;1.67;;
11191;SDS011;5652;48.406;10.820;2022-07-30T13:43:16;1.73;;;1.50;;
11191;SDS011;5652;48.406;10.820;2022-07-30T13:45:43;1.92;;;1.50;;
11191;SDS011;5652;48.406;10.820;2022-07-30T13:48:11;2.05;;;1.50;;
11191;SDS011;5652;48.406;10.820;2022-07-30T13:50:38;3.00;;;1.90;;
11191;SDS011;5652;48.406;10.820;2022-07-30T13:53:05;2.40;;;1.57;;
11191;SDS011;5652;48.406;10.820;2022-07-30T13:55:35;3.00;;;1.75;;
11191;SDS011;5652;48.406;10.820;2022-07-30T13:58:02;1.55;;;1.42;;
11191;SDS011;5652;48.406;10.820;2022-07-30T14:00:30;2.67;;;1.90;;
11191;SDS011;5652;48.406;10.820;2022-07-30T14:02:58;4.03;;;1.63;;
11191;SDS011;5652;48.406;10.820;2022-07-30T14:05:25;2.15;;;1.60;;
11191;SDS011;5652;48.406;10.820;2022-07-30T14:07:53;3.60;;;1.50;;
11191;SDS011;5652;48.406;10.820;2022-07-30T14:10:20;3.07;;;1.47;;
11191;SDS011;5652;48.406;10.820;2022-07-30T14:12:49;2.30;;;1.45;;
11191;SDS011;5652;48.406;10.820;2022-07-30T14:15:18;3.22;;;1.50;;
11191;SDS011;5652;48.406;10.820;2022-07-30T14:17:46;1.88;;;1.42;;
11191;SDS011;5652;48.406;10.820;2022-07-30T14:20:13;2.78;;;1.60;;
11191;SDS011;5652;48.406;10.820;2022-07-30T14:22:40;2.70;;;1.50;;
11191;SDS011;5652;48.406;10.820;2022-07-30T14:25:07;1.90;;;1.40;;
11191;SDS011;5652;48.406;10.820;2022-07-30T14:27:35;2.20;;;1.57;;
11191;SDS011;5652;48.406;10.820;2022-07-30T14:30:04;2.73;;;1.60;;
11191;SDS011;5652;48.406;10.820;2022-07-30T14:32:31;3.13;;;1.52;;
11191;SDS011;5652;48.406;10.820;2022-07-30T14:34:58;3.22;;;1.40;;
11191;SDS011;5652;48.406;10.820;2022-07-30T14:37:26;2.63;;;1.50;;
11191;SDS011;5652;48.406;10.820;2022-07-30T14:39:53;3.10;;;1.60;;
11191;SDS011;5652;48.406;10.820;2022-07-30T14:42:20;3.85;;;1.40;;
11191;SDS011;5652;48.406;10.820;2022-07-30T14:44:49;3.15;;;1.52;;
11191;SDS011;5652;48.406;10.820;2022-07-30T14:47:17;2.33;;;1.45;;
11191;SDS011;5652;48.406;10.820;2022-07-30T14:49:44;2.60;;;1.90;;
11191;SDS011;5652;48.406;10.820;2022-07-30T14:52:11;2.40;;;1.30;;
11191;SDS011;5652;48.406;10.820;2022-07-30T14:54:39;2.30;;;1.52;;
11191;SDS011;5652;48.406;10.820;2022-07-30T14:57:06;2.95;;;1.55;;
11191;SDS011;5652;48.406;10.820;2022-07-30T14:59:34;1.58;;;1.40;;
11191;SDS011;5652;48.406;10.820;2022-07-30T15:02:01;3.58;;;1.55;;
11191;SDS011;5652;48.406;10.820;2022-07-30T15:04:29;2.42;;;1.50;;
11191;SDS011;5652;48.406;10.820;2022-07-30T15:06:57;1.65;;;1.40;;